createdAt,value
2018-09-12T00:00:08.801Z,99.90
2018-09-12T00:02:36.364Z,99.90
2018-09-12T00:05:04.031Z,99.90
2018-09-12T00:07:31.593Z,99.90
2018-09-12T00:09:59.124Z,99.90
2018-09-12T00:12:26.668Z,99.90
2018-09-12T00:14:54.537Z,99.90
2018-09-12T00:17:22.100Z,99.90
2018-09-12T00:19:49.640Z,99.90
2018-09-12T00:22:17.269Z,99.90
2018-09-12T00:24:44.823Z,99.90
2018-09-12T00:27:12.419Z,99.90
2018-09-12T00:29:39.959Z,99.90
2018-09-12T00:32:07.523Z,99.90
2018-09-12T00:34:35.065Z,99.90
2018-09-12T00:37:02.688Z,99.90
2018-09-12T00:39:30.928Z,99.90
2018-09-12T00:41:58.537Z,99.90
2018-09-12T00:44:26.073Z,99.90
2018-09-12T00:46:53.647Z,99.90
2018-09-12T00:49:21.160Z,99.90
2018-09-12T00:51:48.749Z,99.90
2018-09-12T00:54:16.452Z,99.90
2018-09-12T00:56:43.955Z,99.90
2018-09-12T00:59:11.482Z,99.90
2018-09-12T01:01:39.060Z,99.90
2018-09-12T01:04:06.841Z,99.90
2018-09-12T01:06:34.384Z,99.90
2018-09-12T01:09:01.924Z,99.90
2018-09-12T01:11:29.600Z,99.90
2018-09-12T01:13:57.121Z,99.90
2018-09-12T01:16:24.642Z,99.90
2018-09-12T01:18:52.276Z,99.90
2018-09-12T01:21:19.820Z,99.90
2018-09-12T01:23:47.382Z,99.90
2018-09-12T01:26:14.894Z,99.90
2018-09-12T01:28:42.434Z,99.90
2018-09-12T01:31:10.036Z,99.90
2018-09-12T01:33:37.708Z,99.90
2018-09-12T01:36:05.260Z,99.90
2018-09-12T01:38:32.853Z,99.90
2018-09-12T01:41:00.422Z,99.90
2018-09-12T01:43:27.962Z,99.90
2018-09-12T01:45:55.503Z,99.90
2018-09-12T01:48:23.032Z,99.90
2018-09-12T01:50:50.558Z,99.90
2018-09-12T01:53:18.153Z,99.90
2018-09-12T01:55:45.749Z,99.90
2018-09-12T01:58:13.272Z,99.90
2018-09-12T02:00:41.624Z,99.90
2018-09-12T02:03:09.661Z,99.90
2018-09-12T02:05:37.861Z,99.90
2018-09-12T02:08:05.565Z,99.90
2018-09-12T02:10:33.193Z,99.90
2018-09-12T02:13:00.719Z,99.90
2018-09-12T02:15:28.351Z,99.90
2018-09-12T02:17:55.887Z,99.90
2018-09-12T02:20:23.457Z,99.90
2018-09-12T02:22:50.957Z,99.90
2018-09-12T02:25:18.549Z,99.90
2018-09-12T02:27:46.142Z,99.90
2018-09-12T02:30:13.731Z,99.90
2018-09-12T02:32:41.470Z,99.90
2018-09-12T02:35:09.019Z,99.90
2018-09-12T02:37:36.702Z,99.90
2018-09-12T02:40:04.966Z,99.90
2018-09-12T02:42:32.573Z,99.90
2018-09-12T02:45:00.117Z,99.90
2018-09-12T02:47:33.219Z,99.90
2018-09-12T02:50:00.788Z,99.90
2018-09-12T02:52:28.357Z,99.90
2018-09-12T02:54:55.919Z,99.90
2018-09-12T02:57:23.469Z,99.90
2018-09-12T02:59:51.011Z,99.90
2018-09-12T03:02:18.689Z,99.90
2018-09-12T03:04:51.864Z,99.90
2018-09-12T03:07:19.414Z,99.90
2018-09-12T03:09:47.000Z,99.90
2018-09-12T03:12:14.851Z,99.90
2018-09-12T03:14:42.423Z,99.90
2018-09-12T03:17:10.539Z,99.90
2018-09-12T03:19:38.163Z,99.90
2018-09-12T03:22:06.097Z,99.90
2018-09-12T03:24:33.825Z,99.90
2018-09-12T03:27:01.433Z,99.90
2018-09-12T03:29:28.968Z,99.90
2018-09-12T03:31:56.516Z,99.90
2018-09-12T03:34:24.083Z,99.90
2018-09-12T03:36:51.619Z,99.90
2018-09-12T03:39:19.193Z,99.90
2018-09-12T03:41:46.744Z,99.90
2018-09-12T03:44:14.329Z,99.90
2018-09-12T03:46:42.047Z,99.90
2018-09-12T03:49:10.211Z,99.90
2018-09-12T03:51:37.713Z,99.90
2018-09-12T03:54:05.305Z,99.90
2018-09-12T03:56:32.845Z,99.90
2018-09-12T03:59:00.418Z,99.90
2018-09-12T04:01:27.938Z,99.90
2018-09-12T04:03:55.477Z,99.90
2018-09-12T04:06:23.017Z,99.90
2018-09-12T04:08:50.605Z,99.90
2018-09-12T04:11:18.163Z,99.90
2018-09-12T04:13:45.731Z,99.90
2018-09-12T04:16:13.268Z,99.90
2018-09-12T04:18:40.880Z,99.90
2018-09-12T04:21:08.407Z,99.90
2018-09-12T04:23:36.036Z,99.90
2018-09-12T04:26:03.674Z,99.90
2018-09-12T04:28:31.217Z,99.90
2018-09-12T04:30:58.786Z,99.90
2018-09-12T04:33:26.325Z,99.90
2018-09-12T04:35:53.863Z,99.90
2018-09-12T04:38:21.450Z,99.90
2018-09-12T04:40:49.110Z,99.90
2018-09-12T04:43:16.870Z,99.90
2018-09-12T04:45:44.542Z,99.90
2018-09-12T04:48:12.080Z,99.90
2018-09-12T04:50:39.634Z,99.90
2018-09-12T04:53:07.258Z,99.90
2018-09-12T04:55:34.840Z,99.90
2018-09-12T04:58:02.510Z,99.90
2018-09-12T05:00:30.052Z,99.90
2018-09-12T05:02:57.664Z,99.90
2018-09-12T05:05:25.224Z,99.90
2018-09-12T05:07:52.776Z,99.90
2018-09-12T05:10:20.371Z,99.90
2018-09-12T05:12:47.899Z,99.90
2018-09-12T05:15:15.455Z,99.90
2018-09-12T05:17:43.003Z,99.90
2018-09-12T05:20:10.517Z,99.90
2018-09-12T05:22:38.160Z,99.90
2018-09-12T05:25:06.091Z,99.90
2018-09-12T05:27:33.876Z,99.90
2018-09-12T05:30:01.584Z,99.90
2018-09-12T05:32:29.074Z,99.90
2018-09-12T05:34:56.796Z,99.90
2018-09-12T05:37:24.448Z,99.90
2018-09-12T05:39:52.138Z,99.90
2018-09-12T05:42:19.691Z,99.90
2018-09-12T05:44:47.251Z,99.90
2018-09-12T05:47:14.807Z,99.90
2018-09-12T05:49:42.341Z,99.90
2018-09-12T05:52:09.893Z,99.90
2018-09-12T05:54:37.419Z,99.90
2018-09-12T05:57:05.009Z,99.90
2018-09-12T05:59:32.593Z,99.90
2018-09-12T06:02:00.139Z,99.50
2018-09-12T06:04:27.684Z,99.10
2018-09-12T06:06:55.284Z,99.00
2018-09-12T06:09:22.824Z,99.00
2018-09-12T06:11:50.389Z,98.60
2018-09-12T06:14:17.932Z,98.70
2018-09-12T06:16:45.471Z,98.40
2018-09-12T06:19:13.070Z,98.10
2018-09-12T06:21:40.617Z,97.90
2018-09-12T06:24:08.235Z,97.80
2018-09-12T06:26:35.836Z,97.80
2018-09-12T06:29:03.409Z,97.80
2018-09-12T06:31:30.939Z,97.70
2018-09-12T06:33:58.467Z,98.00
2018-09-12T06:36:25.972Z,98.30
2018-09-12T06:38:53.516Z,98.50
2018-09-12T06:41:21.150Z,98.70
2018-09-12T06:43:49.142Z,98.90
2018-09-12T06:46:16.684Z,99.10
2018-09-12T06:48:44.292Z,99.10
2018-09-12T06:51:11.847Z,99.10
2018-09-12T06:53:39.462Z,99.00
2018-09-12T06:56:07.186Z,98.90
2018-09-12T06:58:34.830Z,98.80
2018-09-12T07:01:02.448Z,98.90
2018-09-12T07:03:29.975Z,98.80
2018-09-12T07:05:57.637Z,98.60
2018-09-12T07:08:25.196Z,98.30
2018-09-12T07:10:52.749Z,98.20
2018-09-12T07:13:20.355Z,97.90
2018-09-12T07:15:47.925Z,97.90
2018-09-12T07:18:15.478Z,97.70
2018-09-12T07:20:43.107Z,97.60
2018-09-12T07:23:10.720Z,97.30
2018-09-12T07:25:38.285Z,97.10
2018-09-12T07:28:05.849Z,96.90
2018-09-12T07:30:33.497Z,96.70
2018-09-12T07:33:00.997Z,96.30
2018-09-12T07:35:28.619Z,96.30
2018-09-12T07:37:56.178Z,96.30
2018-09-12T07:40:23.755Z,96.30
2018-09-12T07:42:51.307Z,96.60
2018-09-12T07:45:18.843Z,96.40
2018-09-12T07:47:46.381Z,96.00
2018-09-12T07:50:13.961Z,95.90
2018-09-12T07:52:41.525Z,95.40
2018-09-12T07:55:09.153Z,95.60
2018-09-12T07:57:36.692Z,95.40
2018-09-12T08:00:05.022Z,95.20
2018-09-12T08:02:32.578Z,95.00
2018-09-12T08:05:00.193Z,95.00
2018-09-12T08:07:27.725Z,95.10
2018-09-12T08:09:55.310Z,95.10
2018-09-12T08:12:22.954Z,95.20
2018-09-12T08:14:50.392Z,94.70
2018-09-12T08:17:17.957Z,94.50
2018-09-12T08:19:45.470Z,94.40
2018-09-12T08:22:13.027Z,94.30
2018-09-12T08:24:40.562Z,94.00
2018-09-12T08:27:08.103Z,93.90
2018-09-12T08:29:35.612Z,93.80
2018-09-12T08:32:03.151Z,93.70
2018-09-12T08:34:30.689Z,93.60
2018-09-12T08:36:58.324Z,93.20
2018-09-12T08:39:25.846Z,92.90
2018-09-12T08:41:53.433Z,92.60
2018-09-12T08:44:20.967Z,92.30
2018-09-12T08:46:48.570Z,92.00
2018-09-12T08:49:16.162Z,91.80
2018-09-12T08:51:43.684Z,91.90
2018-09-12T08:54:11.276Z,91.90
2018-09-12T08:56:38.860Z,91.50
2018-09-12T08:59:06.418Z,91.00
2018-09-12T09:01:34.056Z,90.90
2018-09-12T09:04:01.612Z,90.90
2018-09-12T09:06:29.197Z,90.30
2018-09-12T09:08:56.815Z,89.70
2018-09-12T09:11:24.356Z,88.80
2018-09-12T09:13:52.016Z,88.00
2018-09-12T09:16:19.586Z,87.50
2018-09-12T09:18:47.108Z,87.70
2018-09-12T09:21:14.732Z,87.50
2018-09-12T09:23:42.344Z,86.90
2018-09-12T09:26:09.818Z,83.20
2018-09-12T09:28:37.336Z,80.10
2018-09-12T09:31:05.066Z,78.90
2018-09-12T09:33:32.624Z,77.80
2018-09-12T09:36:00.144Z,76.60
2018-09-12T09:38:27.701Z,76.60
2018-09-12T09:40:55.268Z,76.60
2018-09-12T09:43:22.910Z,76.80
2018-09-12T09:45:50.458Z,76.60
2018-09-12T09:48:18.055Z,75.70
2018-09-12T09:50:45.766Z,74.20
2018-09-12T09:53:13.277Z,74.40
2018-09-12T09:55:40.848Z,74.60
2018-09-12T09:58:08.373Z,73.00
2018-09-12T10:00:41.450Z,71.50
2018-09-12T10:03:14.579Z,71.60
2018-09-12T10:05:47.830Z,70.40
2018-09-12T10:08:21.038Z,69.70
2018-09-12T10:10:48.624Z,70.00
2018-09-12T10:13:16.150Z,70.70
2018-09-12T10:15:43.708Z,70.30
2018-09-12T10:18:11.233Z,68.30
2018-09-12T10:20:38.883Z,65.60
2018-09-12T10:23:06.441Z,65.20
2018-09-12T10:25:34.087Z,65.20
2018-09-12T10:28:01.638Z,64.60
2018-09-12T10:30:29.201Z,63.00
2018-09-12T10:32:56.751Z,61.20
2018-09-12T10:35:24.411Z,60.20
2018-09-12T10:37:51.984Z,59.20
2018-09-12T10:40:19.707Z,58.30
2018-09-12T10:42:47.601Z,55.80
2018-09-12T10:45:15.150Z,55.50
2018-09-12T10:47:42.735Z,55.60
2018-09-12T10:50:10.274Z,54.60
2018-09-12T10:52:37.810Z,53.30
2018-09-12T10:55:05.416Z,51.10
2018-09-12T10:57:32.964Z,50.60
2018-09-12T11:00:00.501Z,49.30
2018-09-12T11:02:28.076Z,49.20
2018-09-12T11:04:55.600Z,48.10
2018-09-12T11:07:23.166Z,47.20
2018-09-12T11:09:50.743Z,46.40
2018-09-12T11:12:18.408Z,46.50
2018-09-12T11:14:45.992Z,46.70
2018-09-12T11:17:13.640Z,46.90
2018-09-12T11:19:41.148Z,47.30
2018-09-12T11:22:08.694Z,47.00
2018-09-12T11:24:36.222Z,46.00
2018-09-12T11:27:03.840Z,45.00
2018-09-12T11:29:31.409Z,44.80
2018-09-12T11:31:59.012Z,43.90
2018-09-12T11:34:26.540Z,42.90
2018-09-12T11:36:54.098Z,42.40
2018-09-12T11:39:21.749Z,41.40
2018-09-12T11:41:49.398Z,41.40
2018-09-12T11:44:16.914Z,40.90
2018-09-12T11:46:44.478Z,40.90
2018-09-12T11:49:12.146Z,41.40
2018-09-12T11:51:39.759Z,41.60
2018-09-12T11:54:07.332Z,41.70
2018-09-12T11:56:34.917Z,41.60
2018-09-12T11:59:02.471Z,37.90
2018-09-12T12:01:30.047Z,37.80
2018-09-12T12:03:57.610Z,37.40
2018-09-12T12:06:25.162Z,35.80
2018-09-12T12:08:52.759Z,35.50
2018-09-12T12:11:20.313Z,36.10
2018-09-12T12:13:47.879Z,36.40
2018-09-12T12:16:15.465Z,36.20
2018-09-12T12:18:43.061Z,36.50
2018-09-12T12:21:10.622Z,37.00
2018-09-12T12:23:38.186Z,36.50
2018-09-12T12:26:06.065Z,36.60
2018-09-12T12:28:33.642Z,37.10
2018-09-12T12:31:01.196Z,37.80
2018-09-12T12:33:28.740Z,36.70
2018-09-12T12:35:56.281Z,35.20
2018-09-12T12:38:23.888Z,34.60
2018-09-12T12:40:51.526Z,34.00
2018-09-12T12:43:19.058Z,34.00
2018-09-12T12:45:46.649Z,34.00
2018-09-12T12:48:14.182Z,33.60
2018-09-12T12:50:41.739Z,33.10
2018-09-12T12:53:09.345Z,32.60
2018-09-12T12:55:36.953Z,31.90
2018-09-12T12:58:04.603Z,31.00
2018-09-12T13:00:32.171Z,31.00
2018-09-12T13:02:59.685Z,31.60
2018-09-12T13:05:27.330Z,32.00
2018-09-12T13:07:54.823Z,31.80
2018-09-12T13:10:22.367Z,32.90
2018-09-12T13:12:49.933Z,32.40
2018-09-12T13:15:17.487Z,31.60
2018-09-12T13:17:45.009Z,31.80
2018-09-12T13:20:12.543Z,32.50
2018-09-12T13:22:40.182Z,33.00
2018-09-12T13:25:07.750Z,33.40
2018-09-12T13:27:35.374Z,32.50
2018-09-12T13:30:02.911Z,32.10
2018-09-12T13:32:30.658Z,32.80
2018-09-12T13:34:58.199Z,32.50
2018-09-12T13:37:25.756Z,31.30
2018-09-12T13:39:53.312Z,31.00
2018-09-12T13:42:20.842Z,30.70
2018-09-12T13:44:48.778Z,30.90
2018-09-12T13:47:16.314Z,31.30
2018-09-12T13:49:43.870Z,31.10
2018-09-12T13:52:11.442Z,31.60
2018-09-12T13:54:38.970Z,30.90
2018-09-12T13:57:06.634Z,31.00
2018-09-12T13:59:34.204Z,31.00
2018-09-12T14:02:01.762Z,30.90
2018-09-12T14:04:29.322Z,31.70
2018-09-12T14:06:56.974Z,32.30
2018-09-12T14:09:24.512Z,32.20
2018-09-12T14:11:52.072Z,31.70
2018-09-12T14:14:19.727Z,31.30
2018-09-12T14:16:47.265Z,32.00
2018-09-12T14:19:14.802Z,32.00
2018-09-12T14:21:42.380Z,32.00
2018-09-12T14:24:09.938Z,32.10
2018-09-12T14:26:37.446Z,31.80
2018-09-12T14:29:05.002Z,32.00
2018-09-12T14:31:32.559Z,31.60
2018-09-12T14:34:00.124Z,30.70
2018-09-12T14:36:27.675Z,31.20
2018-09-12T14:38:55.294Z,32.40
2018-09-12T14:41:22.804Z,31.70
2018-09-12T14:43:50.367Z,32.10
2018-09-12T14:46:18.781Z,32.00
2018-09-12T14:48:46.358Z,32.30
2018-09-12T14:51:13.947Z,32.20
2018-09-12T14:53:41.539Z,32.10
2018-09-12T14:56:09.100Z,32.80
2018-09-12T14:58:36.704Z,32.30
2018-09-12T15:01:04.309Z,31.30
2018-09-12T15:03:31.880Z,32.00
2018-09-12T15:05:59.435Z,33.00
2018-09-12T15:08:26.977Z,32.00
2018-09-12T15:10:54.613Z,32.30
2018-09-12T15:13:22.207Z,31.80
2018-09-12T15:15:49.745Z,31.90
2018-09-12T15:18:17.310Z,32.70
2018-09-12T15:20:44.878Z,32.60
2018-09-12T15:23:12.398Z,32.60
2018-09-12T15:25:39.992Z,33.30
2018-09-12T15:28:07.614Z,33.30
2018-09-12T15:30:35.158Z,33.60
2018-09-12T15:33:02.747Z,33.60
2018-09-12T15:35:30.336Z,33.10
2018-09-12T15:37:58.082Z,31.70
2018-09-12T15:40:25.854Z,30.90
2018-09-12T15:42:53.568Z,31.20
2018-09-12T15:45:21.216Z,31.20
2018-09-12T15:47:48.842Z,31.70
2018-09-12T15:50:16.464Z,33.40
2018-09-12T15:52:44.250Z,33.50
2018-09-12T15:55:11.986Z,34.10
2018-09-12T15:57:39.584Z,34.90
2018-09-12T16:00:07.205Z,34.70
2018-09-12T16:02:34.822Z,33.70
2018-09-12T16:05:02.454Z,34.40
2018-09-12T16:07:30.033Z,35.20
2018-09-12T16:09:57.556Z,35.80
2018-09-12T16:12:25.115Z,36.50
2018-09-12T16:14:52.665Z,35.80
2018-09-12T16:17:20.272Z,35.10
2018-09-12T16:19:48.225Z,34.90
2018-09-12T16:22:15.890Z,37.20
2018-09-12T16:24:43.491Z,36.90
2018-09-12T16:27:11.090Z,36.90
2018-09-12T16:29:38.735Z,39.50
2018-09-12T16:32:06.361Z,39.10
2018-09-12T16:34:33.927Z,40.40
2018-09-12T16:37:01.618Z,40.90
2018-09-12T16:39:29.229Z,41.50
2018-09-12T16:41:56.873Z,42.20
2018-09-12T16:44:24.476Z,43.70
2018-09-12T16:46:52.058Z,44.80
2018-09-12T16:49:19.670Z,45.90
2018-09-12T16:51:47.250Z,47.30
2018-09-12T16:54:15.033Z,48.30
2018-09-12T16:56:43.113Z,49.30
2018-09-12T16:59:10.831Z,50.80
2018-09-12T17:01:38.425Z,52.10
2018-09-12T17:04:06.051Z,53.00
2018-09-12T17:06:33.657Z,54.00
2018-09-12T17:09:01.285Z,55.30
2018-09-12T17:11:28.893Z,57.10
2018-09-12T17:13:56.535Z,58.60
2018-09-12T17:16:24.116Z,60.00
2018-09-12T17:18:51.816Z,61.20
2018-09-12T17:21:19.431Z,61.40
2018-09-12T17:23:47.053Z,60.20
2018-09-12T17:26:14.592Z,59.40
2018-09-12T17:28:42.235Z,60.00
2018-09-12T17:31:09.961Z,61.40
2018-09-12T17:33:37.631Z,62.30
2018-09-12T17:36:05.281Z,62.80
2018-09-12T17:38:33.164Z,63.00
2018-09-12T17:41:00.977Z,63.80
2018-09-12T17:43:28.656Z,62.90
2018-09-12T17:45:56.277Z,63.20
2018-09-12T17:48:24.071Z,63.70
2018-09-12T17:50:51.966Z,64.70
2018-09-12T17:53:19.598Z,65.30
2018-09-12T17:55:47.357Z,65.80
2018-09-12T17:58:15.026Z,66.10
2018-09-12T18:00:42.795Z,66.90
2018-09-12T18:03:10.405Z,68.10
2018-09-12T18:05:38.132Z,69.00
2018-09-12T18:08:05.887Z,69.90
2018-09-12T18:10:33.600Z,70.90
2018-09-12T18:13:01.247Z,71.40
2018-09-12T18:15:28.917Z,72.30
2018-09-12T18:17:56.541Z,72.80
2018-09-12T18:20:24.172Z,73.80
2018-09-12T18:22:52.006Z,75.70
2018-09-12T18:25:20.959Z,76.20
2018-09-12T18:27:49.036Z,75.80
2018-09-12T18:30:16.911Z,77.70
2018-09-12T18:32:44.611Z,77.10
2018-09-12T18:35:12.657Z,76.70
2018-09-12T18:37:40.331Z,76.10
2018-09-12T18:40:10.081Z,76.90
2018-09-12T18:42:37.846Z,78.20
2018-09-12T18:45:05.583Z,79.20
2018-09-12T18:47:33.772Z,80.30
2018-09-12T18:50:01.476Z,81.40
2018-09-12T18:52:29.184Z,82.10
2018-09-12T18:54:56.930Z,83.10
2018-09-12T18:57:25.879Z,84.10
2018-09-12T18:59:53.562Z,84.70
2018-09-12T19:02:21.271Z,86.10
2018-09-12T19:04:48.964Z,86.40
2018-09-12T19:07:16.872Z,86.60
2018-09-12T19:09:45.027Z,86.50
2018-09-12T19:12:13.697Z,87.00
2018-09-12T19:14:41.345Z,87.10
2018-09-12T19:17:09.924Z,87.60
2018-09-12T19:19:37.984Z,88.20
2018-09-12T19:22:06.008Z,89.00
2018-09-12T19:24:33.779Z,89.50
2018-09-12T19:27:01.804Z,90.10
2018-09-12T19:29:29.523Z,90.30
2018-09-12T19:31:57.243Z,90.50
2018-09-12T19:34:25.887Z,90.60
2018-09-12T19:36:53.566Z,90.80
2018-09-12T19:39:22.078Z,91.20
2018-09-12T19:41:50.409Z,91.50
2018-09-12T19:44:18.144Z,91.70
2018-09-12T19:46:48.141Z,91.80
2018-09-12T19:49:15.845Z,91.80
2018-09-12T19:51:43.457Z,91.90
2018-09-12T19:54:11.126Z,92.00
2018-09-12T19:56:38.776Z,92.20
2018-09-12T19:59:06.468Z,92.40
2018-09-12T20:01:34.167Z,92.70
2018-09-12T20:04:01.832Z,93.20
2018-09-12T20:06:30.425Z,93.00
2018-09-12T20:08:58.129Z,93.20
2018-09-12T20:11:25.817Z,93.40
2018-09-12T20:13:53.542Z,93.60
2018-09-12T20:16:21.180Z,93.70
2018-09-12T20:18:49.791Z,93.90
2018-09-12T20:21:18.061Z,94.00
2018-09-12T20:23:45.823Z,94.10
2018-09-12T20:26:13.415Z,94.10
2018-09-12T20:28:46.809Z,94.00
2018-09-12T20:31:14.432Z,93.90
2018-09-12T20:33:42.039Z,94.00
2018-09-12T20:36:09.650Z,94.10
2018-09-12T20:38:37.273Z,94.30
2018-09-12T20:41:05.019Z,94.60
2018-09-12T20:43:33.034Z,94.80
2018-09-12T20:46:00.737Z,95.10
2018-09-12T20:48:28.506Z,95.40
2018-09-12T20:50:56.142Z,95.60
2018-09-12T20:53:23.944Z,95.80
2018-09-12T20:55:51.554Z,95.90
2018-09-12T20:58:19.152Z,96.10
2018-09-12T21:00:46.700Z,96.30
2018-09-12T21:03:14.262Z,96.40
2018-09-12T21:05:41.860Z,96.60
2018-09-12T21:08:09.414Z,96.70
2018-09-12T21:10:37.002Z,96.70
2018-09-12T21:13:04.582Z,96.80
2018-09-12T21:15:32.138Z,96.80
2018-09-12T21:17:59.717Z,96.90
2018-09-12T21:20:27.231Z,97.00
2018-09-12T21:22:54.815Z,97.10
2018-09-12T21:25:22.420Z,97.20
2018-09-12T21:27:50.164Z,97.30
2018-09-12T21:30:18.313Z,97.40
2018-09-12T21:32:46.010Z,97.40
2018-09-12T21:35:13.541Z,97.40
2018-09-12T21:37:41.114Z,97.50
2018-09-12T21:40:08.654Z,97.50
2018-09-12T21:42:36.229Z,97.70
2018-09-12T21:45:03.957Z,97.70
2018-09-12T21:47:31.559Z,97.70
2018-09-12T21:49:59.093Z,97.80
2018-09-12T21:52:26.666Z,97.80
2018-09-12T21:54:54.191Z,97.90
2018-09-12T21:57:21.747Z,97.90
2018-09-12T21:59:50.139Z,97.90
2018-09-12T22:02:17.783Z,97.90
2018-09-12T22:04:45.433Z,97.70
2018-09-12T22:07:13.065Z,97.70
2018-09-12T22:09:40.606Z,97.70
2018-09-12T22:12:08.201Z,97.70
2018-09-12T22:14:35.770Z,97.70
2018-09-12T22:17:03.330Z,97.60
2018-09-12T22:19:30.910Z,97.60
2018-09-12T22:21:58.529Z,97.50
2018-09-12T22:24:26.101Z,97.50
2018-09-12T22:26:53.743Z,97.50
2018-09-12T22:29:21.301Z,97.50
2018-09-12T22:31:48.907Z,97.50
2018-09-12T22:34:16.480Z,97.50
2018-09-12T22:36:44.062Z,97.50
2018-09-12T22:39:11.795Z,97.50
2018-09-12T22:41:39.777Z,97.40
2018-09-12T22:44:07.362Z,97.40
2018-09-12T22:46:34.935Z,97.30
2018-09-12T22:49:02.491Z,97.40
2018-09-12T22:51:30.030Z,97.50
2018-09-12T22:53:57.694Z,97.40
2018-09-12T22:56:25.275Z,97.30
2018-09-12T22:58:53.041Z,97.30
2018-09-12T23:01:20.583Z,97.20
2018-09-12T23:03:48.140Z,97.30
2018-09-12T23:06:15.705Z,97.40
2018-09-12T23:08:43.652Z,97.30
2018-09-12T23:11:11.270Z,97.40
2018-09-12T23:13:38.819Z,97.50
2018-09-12T23:16:06.362Z,97.50
2018-09-12T23:18:33.959Z,97.50
2018-09-12T23:21:01.623Z,97.50
2018-09-12T23:23:29.154Z,97.50
2018-09-12T23:25:56.778Z,97.50
2018-09-12T23:28:24.418Z,97.40
2018-09-12T23:30:51.952Z,97.30
2018-09-12T23:33:19.472Z,97.30
2018-09-12T23:35:47.199Z,97.30
2018-09-12T23:38:14.700Z,97.40
2018-09-12T23:40:42.233Z,97.40
2018-09-12T23:43:09.766Z,97.50
2018-09-12T23:45:37.337Z,97.50
2018-09-12T23:48:04.897Z,97.60
2018-09-12T23:50:32.415Z,97.60
2018-09-12T23:53:00.003Z,97.60
2018-09-12T23:55:27.590Z,97.40
2018-09-12T23:57:55.144Z,97.20
